sensor_id;sensor_type;location;lat;lon;timestamp;P1;durP1;ratioP1;P2;durP2;ratioP2
5981;SDS011;3018;48.730;9.336;2023-12-14T00:00:48;0.80;;;0.80;;
5981;SDS011;3018;48.730;9.336;2023-12-14T00:03:14;1.00;;;1.00;;
5981;SDS011;3018;48.730;9.336;2023-12-14T00:05:41;0.93;;;0.93;;
5981;SDS011;3018;48.730;9.336;2023-12-14T00:08:08;2.95;;;1.00;;
5981;SDS011;3018;48.730;9.336;2023-12-14T00:10:34;0.95;;;0.90;;
5981;SDS011;3018;48.730;9.336;2023-12-14T00:13:01;1.75;;;1.10;;
5981;SDS011;3018;48.730;9.336;2023-12-14T00:15:29;1.30;;;1.30;;
5981;SDS011;3018;48.730;9.336;2023-12-14T00:17:55;1.20;;;1.20;;
5981;SDS011;3018;48.730;9.336;2023-12-14T00:20:21;2.17;;;1.30;;
5981;SDS011;3018;48.730;9.336;2023-12-14T00:22:48;1.88;;;1.15;;
5981;SDS011;3018;48.730;9.336;2023-12-14T00:25:15;1.58;;;1.30;;
5981;SDS011;3018;48.730;9.336;2023-12-14T00:27:42;1.30;;;1.20;;
5981;SDS011;3018;48.730;9.336;2023-12-14T00:30:08;1.15;;;1.15;;
5981;SDS011;3018;48.730;9.336;2023-12-14T00:32:35;2.70;;;1.25;;
5981;SDS011;3018;48.730;9.336;2023-12-14T00:35:01;3.05;;;1.13;;
5981;SDS011;3018;48.730;9.336;2023-12-14T00:37:27;1.15;;;1.15;;
5981;SDS011;3018;48.730;9.336;2023-12-14T00:39:54;1.33;;;1.30;;
5981;SDS011;3018;48.730;9.336;2023-12-14T00:42:21;1.23;;;1.10;;
5981;SDS011;3018;48.730;9.336;2023-12-14T00:44:47;1.40;;;1.40;;
5981;SDS011;3018;48.730;9.336;2023-12-14T00:47:14;1.40;;;1.40;;
5981;SDS011;3018;48.730;9.336;2023-12-14T00:49:40;1.65;;;1.35;;
5981;SDS011;3018;48.730;9.336;2023-12-14T00:52:06;1.27;;;1.20;;
5981;SDS011;3018;48.730;9.336;2023-12-14T00:54:32;1.20;;;1.20;;
5981;SDS011;3018;48.730;9.336;2023-12-14T00:56:59;1.65;;;1.65;;
5981;SDS011;3018;48.730;9.336;2023-12-14T00:59:26;1.60;;;1.60;;
5981;SDS011;3018;48.730;9.336;2023-12-14T01:01:52;1.55;;;1.55;;
5981;SDS011;3018;48.730;9.336;2023-12-14T01:04:19;1.30;;;1.30;;
5981;SDS011;3018;48.730;9.336;2023-12-14T01:06:45;1.30;;;1.30;;
5981;SDS011;3018;48.730;9.336;2023-12-14T01:09:11;1.80;;;1.70;;
5981;SDS011;3018;48.730;9.336;2023-12-14T01:11:37;1.50;;;1.50;;
5981;SDS011;3018;48.730;9.336;2023-12-14T01:14:04;2.08;;;1.45;;
5981;SDS011;3018;48.730;9.336;2023-12-14T01:16:31;1.88;;;1.58;;
5981;SDS011;3018;48.730;9.336;2023-12-14T01:18:57;1.50;;;1.50;;
5981;SDS011;3018;48.730;9.336;2023-12-14T01:21:24;1.80;;;1.67;;
5981;SDS011;3018;48.730;9.336;2023-12-14T01:23:50;1.70;;;1.70;;
5981;SDS011;3018;48.730;9.336;2023-12-14T01:26:17;1.85;;;1.75;;
5981;SDS011;3018;48.730;9.336;2023-12-14T01:28:44;1.67;;;1.50;;
5981;SDS011;3018;48.730;9.336;2023-12-14T01:31:10;1.85;;;1.85;;
5981;SDS011;3018;48.730;9.336;2023-12-14T01:33:37;1.70;;;1.70;;
5981;SDS011;3018;48.730;9.336;2023-12-14T01:36:04;2.25;;;1.95;;
5981;SDS011;3018;48.730;9.336;2023-12-14T01:38:30;2.00;;;1.90;;
5981;SDS011;3018;48.730;9.336;2023-12-14T01:40:56;1.85;;;1.75;;
5981;SDS011;3018;48.730;9.336;2023-12-14T01:43:24;2.03;;;1.92;;
5981;SDS011;3018;48.730;9.336;2023-12-14T01:45:50;2.00;;;1.90;;
5981;SDS011;3018;48.730;9.336;2023-12-14T01:48:16;1.85;;;1.85;;
5981;SDS011;3018;48.730;9.336;2023-12-14T01:50:44;2.17;;;2.10;;
5981;SDS011;3018;48.730;9.336;2023-12-14T01:53:10;2.30;;;2.20;;
5981;SDS011;3018;48.730;9.336;2023-12-14T01:55:37;3.80;;;1.90;;
5981;SDS011;3018;48.730;9.336;2023-12-14T01:58:03;2.30;;;2.20;;
5981;SDS011;3018;48.730;9.336;2023-12-14T02:00:30;2.22;;;2.13;;
5981;SDS011;3018;48.730;9.336;2023-12-14T02:03:02;2.00;;;1.98;;
5981;SDS011;3018;48.730;9.336;2023-12-14T02:05:28;2.40;;;2.30;;
5981;SDS011;3018;48.730;9.336;2023-12-14T02:07:56;2.10;;;2.10;;
5981;SDS011;3018;48.730;9.336;2023-12-14T02:10:23;2.40;;;2.30;;
5981;SDS011;3018;48.730;9.336;2023-12-14T02:12:49;2.20;;;2.20;;
5981;SDS011;3018;48.730;9.336;2023-12-14T02:15:16;2.42;;;2.33;;
5981;SDS011;3018;48.730;9.336;2023-12-14T02:17:42;2.50;;;2.33;;
5981;SDS011;3018;48.730;9.336;2023-12-14T02:20:08;2.22;;;2.22;;
5981;SDS011;3018;48.730;9.336;2023-12-14T02:22:47;2.70;;;2.60;;
5981;SDS011;3018;48.730;9.336;2023-12-14T02:25:15;2.53;;;2.33;;
5981;SDS011;3018;48.730;9.336;2023-12-14T02:27:41;2.45;;;2.30;;
5981;SDS011;3018;48.730;9.336;2023-12-14T02:30:07;3.53;;;2.92;;
5981;SDS011;3018;48.730;9.336;2023-12-14T02:32:34;2.92;;;2.83;;
5981;SDS011;3018;48.730;9.336;2023-12-14T02:35:00;2.88;;;2.60;;
5981;SDS011;3018;48.730;9.336;2023-12-14T02:37:27;2.65;;;2.25;;
5981;SDS011;3018;48.730;9.336;2023-12-14T02:39:55;2.88;;;2.80;;
5981;SDS011;3018;48.730;9.336;2023-12-14T02:42:21;2.63;;;2.53;;
5981;SDS011;3018;48.730;9.336;2023-12-14T02:44:48;3.10;;;2.85;;
5981;SDS011;3018;48.730;9.336;2023-12-14T02:47:14;2.78;;;2.58;;
5981;SDS011;3018;48.730;9.336;2023-12-14T02:49:40;2.63;;;2.53;;
5981;SDS011;3018;48.730;9.336;2023-12-14T02:52:07;2.80;;;2.60;;
5981;SDS011;3018;48.730;9.336;2023-12-14T02:54:33;2.85;;;2.75;;
5981;SDS011;3018;48.730;9.336;2023-12-14T02:57:00;2.90;;;2.80;;
5981;SDS011;3018;48.730;9.336;2023-12-14T02:59:27;3.05;;;2.95;;
5981;SDS011;3018;48.730;9.336;2023-12-14T03:01:53;3.00;;;2.90;;
5981;SDS011;3018;48.730;9.336;2023-12-14T03:04:19;3.17;;;3.08;;
5981;SDS011;3018;48.730;9.336;2023-12-14T03:06:45;3.22;;;2.58;;
5981;SDS011;3018;48.730;9.336;2023-12-14T03:09:12;3.25;;;3.08;;
5981;SDS011;3018;48.730;9.336;2023-12-14T03:11:38;2.78;;;2.67;;
5981;SDS011;3018;48.730;9.336;2023-12-14T03:14:06;3.47;;;3.22;;
5981;SDS011;3018;48.730;9.336;2023-12-14T03:16:32;3.22;;;3.05;;
5981;SDS011;3018;48.730;9.336;2023-12-14T03:19:00;2.80;;;2.70;;
5981;SDS011;3018;48.730;9.336;2023-12-14T03:21:26;3.30;;;3.10;;
5981;SDS011;3018;48.730;9.336;2023-12-14T03:23:53;3.40;;;3.15;;
5981;SDS011;3018;48.730;9.336;2023-12-14T03:26:19;2.90;;;2.80;;
5981;SDS011;3018;48.730;9.336;2023-12-14T03:28:45;3.55;;;3.35;;
5981;SDS011;3018;48.730;9.336;2023-12-14T03:31:13;3.20;;;3.10;;
5981;SDS011;3018;48.730;9.336;2023-12-14T03:33:39;3.33;;;3.13;;
5981;SDS011;3018;48.730;9.336;2023-12-14T03:36:06;3.67;;;3.53;;
5981;SDS011;3018;48.730;9.336;2023-12-14T03:38:33;3.35;;;3.13;;
5981;SDS011;3018;48.730;9.336;2023-12-14T03:40:59;3.10;;;3.00;;
5981;SDS011;3018;48.730;9.336;2023-12-14T03:43:26;3.20;;;3.10;;
5981;SDS011;3018;48.730;9.336;2023-12-14T03:45:52;3.42;;;3.28;;
5981;SDS011;3018;48.730;9.336;2023-12-14T03:48:20;3.50;;;3.30;;
5981;SDS011;3018;48.730;9.336;2023-12-14T03:50:46;3.80;;;3.58;;
5981;SDS011;3018;48.730;9.336;2023-12-14T03:53:12;3.58;;;3.40;;
5981;SDS011;3018;48.730;9.336;2023-12-14T03:55:38;3.83;;;3.50;;
5981;SDS011;3018;48.730;9.336;2023-12-14T03:58:05;3.92;;;3.72;;
5981;SDS011;3018;48.730;9.336;2023-12-14T04:00:31;3.80;;;3.60;;
5981;SDS011;3018;48.730;9.336;2023-12-14T04:02:57;4.28;;;3.90;;
5981;SDS011;3018;48.730;9.336;2023-12-14T04:05:25;4.22;;;3.63;;
5981;SDS011;3018;48.730;9.336;2023-12-14T04:07:51;4.30;;;4.03;;
5981;SDS011;3018;48.730;9.336;2023-12-14T04:10:17;3.80;;;3.67;;
5981;SDS011;3018;48.730;9.336;2023-12-14T04:12:43;3.80;;;3.67;;
5981;SDS011;3018;48.730;9.336;2023-12-14T04:15:10;4.45;;;4.25;;
5981;SDS011;3018;48.730;9.336;2023-12-14T04:17:36;4.13;;;3.83;;
5981;SDS011;3018;48.730;9.336;2023-12-14T04:20:03;5.25;;;4.40;;
5981;SDS011;3018;48.730;9.336;2023-12-14T04:22:32;5.05;;;4.65;;
5981;SDS011;3018;48.730;9.336;2023-12-14T04:24:58;4.65;;;4.35;;
5981;SDS011;3018;48.730;9.336;2023-12-14T04:27:24;4.78;;;4.30;;
5981;SDS011;3018;48.730;9.336;2023-12-14T04:29:53;4.63;;;4.40;;
5981;SDS011;3018;48.730;9.336;2023-12-14T04:32:19;4.75;;;4.30;;
5981;SDS011;3018;48.730;9.336;2023-12-14T04:34:46;4.63;;;4.32;;
5981;SDS011;3018;48.730;9.336;2023-12-14T04:37:12;5.10;;;4.68;;
5981;SDS011;3018;48.730;9.336;2023-12-14T04:39:40;4.88;;;4.50;;
5981;SDS011;3018;48.730;9.336;2023-12-14T04:42:06;5.13;;;4.60;;
5981;SDS011;3018;48.730;9.336;2023-12-14T04:44:32;5.30;;;4.80;;
5981;SDS011;3018;48.730;9.336;2023-12-14T04:46:59;5.22;;;4.93;;
5981;SDS011;3018;48.730;9.336;2023-12-14T04:49:25;5.80;;;4.82;;
5981;SDS011;3018;48.730;9.336;2023-12-14T04:51:51;5.10;;;4.78;;
5981;SDS011;3018;48.730;9.336;2023-12-14T04:54:17;5.38;;;5.07;;
5981;SDS011;3018;48.730;9.336;2023-12-14T04:56:46;5.53;;;5.05;;
5981;SDS011;3018;48.730;9.336;2023-12-14T04:59:12;5.50;;;5.20;;
5981;SDS011;3018;48.730;9.336;2023-12-14T05:01:38;5.38;;;4.97;;
5981;SDS011;3018;48.730;9.336;2023-12-14T05:04:05;5.63;;;5.03;;
5981;SDS011;3018;48.730;9.336;2023-12-14T05:06:31;5.85;;;5.35;;
5981;SDS011;3018;48.730;9.336;2023-12-14T05:08:58;5.45;;;5.05;;
5981;SDS011;3018;48.730;9.336;2023-12-14T05:11:27;5.30;;;4.90;;
5981;SDS011;3018;48.730;9.336;2023-12-14T05:13:54;6.30;;;5.63;;
5981;SDS011;3018;48.730;9.336;2023-12-14T05:16:20;6.00;;;5.50;;
5981;SDS011;3018;48.730;9.336;2023-12-14T05:18:47;6.47;;;5.85;;
5981;SDS011;3018;48.730;9.336;2023-12-14T05:21:16;6.22;;;5.72;;
5981;SDS011;3018;48.730;9.336;2023-12-14T05:23:42;6.63;;;5.82;;
5981;SDS011;3018;48.730;9.336;2023-12-14T05:26:08;6.00;;;5.50;;
5981;SDS011;3018;48.730;9.336;2023-12-14T05:28:34;6.25;;;5.65;;
5981;SDS011;3018;48.730;9.336;2023-12-14T05:31:02;6.38;;;5.75;;
5981;SDS011;3018;48.730;9.336;2023-12-14T05:33:29;6.18;;;5.78;;
5981;SDS011;3018;48.730;9.336;2023-12-14T05:35:56;6.47;;;5.93;;
5981;SDS011;3018;48.730;9.336;2023-12-14T05:38:22;6.70;;;6.18;;
5981;SDS011;3018;48.730;9.336;2023-12-14T05:40:49;7.45;;;6.65;;
5981;SDS011;3018;48.730;9.336;2023-12-14T05:43:15;6.95;;;6.28;;
5981;SDS011;3018;48.730;9.336;2023-12-14T05:45:41;7.60;;;6.50;;
5981;SDS011;3018;48.730;9.336;2023-12-14T05:48:09;6.88;;;6.28;;
5981;SDS011;3018;48.730;9.336;2023-12-14T05:50:35;7.15;;;6.55;;
5981;SDS011;3018;48.730;9.336;2023-12-14T05:53:01;7.50;;;6.88;;
5981;SDS011;3018;48.730;9.336;2023-12-14T05:55:28;7.35;;;6.18;;
5981;SDS011;3018;48.730;9.336;2023-12-14T05:57:54;7.55;;;6.85;;
5981;SDS011;3018;48.730;9.336;2023-12-14T06:00:21;8.90;;;7.50;;
5981;SDS011;3018;48.730;9.336;2023-12-14T06:02:48;13.93;;;7.80;;
5981;SDS011;3018;48.730;9.336;2023-12-14T06:05:15;8.48;;;7.63;;
5981;SDS011;3018;48.730;9.336;2023-12-14T06:07:42;6.78;;;6.28;;
5981;SDS011;3018;48.730;9.336;2023-12-14T06:10:09;7.30;;;6.60;;
5981;SDS011;3018;48.730;9.336;2023-12-14T06:12:35;7.45;;;6.75;;
5981;SDS011;3018;48.730;9.336;2023-12-14T06:15:02;7.95;;;7.25;;
5981;SDS011;3018;48.730;9.336;2023-12-14T06:17:28;7.63;;;7.10;;
5981;SDS011;3018;48.730;9.336;2023-12-14T06:19:54;7.95;;;7.35;;
5981;SDS011;3018;48.730;9.336;2023-12-14T06:22:22;8.23;;;7.43;;
5981;SDS011;3018;48.730;9.336;2023-12-14T06:24:48;11.15;;;7.75;;
5981;SDS011;3018;48.730;9.336;2023-12-14T06:27:14;8.95;;;8.13;;
5981;SDS011;3018;48.730;9.336;2023-12-14T06:29:41;9.13;;;8.23;;
5981;SDS011;3018;48.730;9.336;2023-12-14T06:32:07;9.57;;;8.27;;
5981;SDS011;3018;48.730;9.336;2023-12-14T06:34:33;9.57;;;8.68;;
5981;SDS011;3018;48.730;9.336;2023-12-14T06:36:59;9.25;;;8.30;;
5981;SDS011;3018;48.730;9.336;2023-12-14T06:39:29;8.98;;;8.18;;
5981;SDS011;3018;48.730;9.336;2023-12-14T06:41:55;9.68;;;8.82;;
5981;SDS011;3018;48.730;9.336;2023-12-14T06:44:21;10.10;;;8.93;;
5981;SDS011;3018;48.730;9.336;2023-12-14T06:46:47;9.13;;;8.32;;
5981;SDS011;3018;48.730;9.336;2023-12-14T06:49:14;9.90;;;9.00;;
5981;SDS011;3018;48.730;9.336;2023-12-14T06:51:40;10.13;;;8.95;;
5981;SDS011;3018;48.730;9.336;2023-12-14T06:54:06;9.93;;;8.93;;
5981;SDS011;3018;48.730;9.336;2023-12-14T06:56:34;9.07;;;8.20;;
5981;SDS011;3018;48.730;9.336;2023-12-14T06:59:02;9.70;;;8.82;;
5981;SDS011;3018;48.730;9.336;2023-12-14T07:01:28;10.05;;;8.93;;
5981;SDS011;3018;48.730;9.336;2023-12-14T07:03:54;10.15;;;9.10;;
5981;SDS011;3018;48.730;9.336;2023-12-14T07:06:20;10.98;;;9.00;;
5981;SDS011;3018;48.730;9.336;2023-12-14T07:08:47;9.73;;;8.73;;
5981;SDS011;3018;48.730;9.336;2023-12-14T07:11:13;12.02;;;8.85;;
5981;SDS011;3018;48.730;9.336;2023-12-14T07:13:41;8.80;;;7.95;;
5981;SDS011;3018;48.730;9.336;2023-12-14T07:16:08;9.13;;;8.00;;
5981;SDS011;3018;48.730;9.336;2023-12-14T07:18:34;8.88;;;8.18;;
5981;SDS011;3018;48.730;9.336;2023-12-14T07:21:01;8.75;;;7.95;;
5981;SDS011;3018;48.730;9.336;2023-12-14T07:23:27;7.78;;;6.97;;
5981;SDS011;3018;48.730;9.336;2023-12-14T07:25:53;7.78;;;7.13;;
5981;SDS011;3018;48.730;9.336;2023-12-14T07:28:20;8.10;;;7.40;;
5981;SDS011;3018;48.730;9.336;2023-12-14T07:30:47;8.00;;;7.40;;
5981;SDS011;3018;48.730;9.336;2023-12-14T07:33:14;7.95;;;7.05;;
5981;SDS011;3018;48.730;9.336;2023-12-14T07:35:40;7.75;;;7.13;;
5981;SDS011;3018;48.730;9.336;2023-12-14T07:38:07;8.00;;;7.40;;
5981;SDS011;3018;48.730;9.336;2023-12-14T07:40:33;8.60;;;7.60;;
5981;SDS011;3018;48.730;9.336;2023-12-14T07:42:59;9.98;;;7.40;;
5981;SDS011;3018;48.730;9.336;2023-12-14T07:45:26;9.25;;;8.45;;
5981;SDS011;3018;48.730;9.336;2023-12-14T07:47:53;8.70;;;7.85;;
5981;SDS011;3018;48.730;9.336;2023-12-14T07:50:20;8.73;;;8.00;;
5981;SDS011;3018;48.730;9.336;2023-12-14T07:52:46;9.52;;;8.52;;
5981;SDS011;3018;48.730;9.336;2023-12-14T07:55:12;8.30;;;7.63;;
5981;SDS011;3018;48.730;9.336;2023-12-14T07:57:39;8.52;;;7.88;;
5981;SDS011;3018;48.730;9.336;2023-12-14T08:00:06;10.00;;;7.60;;
5981;SDS011;3018;48.730;9.336;2023-12-14T08:02:33;9.13;;;8.27;;
5981;SDS011;3018;48.730;9.336;2023-12-14T08:05:01;9.65;;;8.45;;
5981;SDS011;3018;48.730;9.336;2023-12-14T08:07:27;13.07;;;8.65;;
5981;SDS011;3018;48.730;9.336;2023-12-14T08:09:54;10.18;;;8.07;;
5981;SDS011;3018;48.730;9.336;2023-12-14T08:12:20;9.45;;;8.38;;
5981;SDS011;3018;48.730;9.336;2023-12-14T08:14:47;10.18;;;8.43;;
5981;SDS011;3018;48.730;9.336;2023-12-14T08:17:13;8.73;;;8.00;;
5981;SDS011;3018;48.730;9.336;2023-12-14T08:19:39;9.95;;;7.95;;
5981;SDS011;3018;48.730;9.336;2023-12-14T08:22:07;8.80;;;8.00;;
5981;SDS011;3018;48.730;9.336;2023-12-14T08:24:36;8.70;;;8.00;;
5981;SDS011;3018;48.730;9.336;2023-12-14T08:27:02;9.13;;;8.07;;
5981;SDS011;3018;48.730;9.336;2023-12-14T08:29:28;8.93;;;8.20;;
5981;SDS011;3018;48.730;9.336;2023-12-14T08:31:54;9.45;;;8.57;;
5981;SDS011;3018;48.730;9.336;2023-12-14T08:34:22;8.35;;;7.55;;
5981;SDS011;3018;48.730;9.336;2023-12-14T08:36:48;10.48;;;7.55;;
5981;SDS011;3018;48.730;9.336;2023-12-14T08:39:16;10.55;;;7.80;;
5981;SDS011;3018;48.730;9.336;2023-12-14T08:41:42;8.40;;;7.57;;
5981;SDS011;3018;48.730;9.336;2023-12-14T08:44:09;9.18;;;7.88;;
5981;SDS011;3018;48.730;9.336;2023-12-14T08:46:39;9.25;;;8.07;;
5981;SDS011;3018;48.730;9.336;2023-12-14T08:49:05;7.50;;;6.80;;
5981;SDS011;3018;48.730;9.336;2023-12-14T08:51:31;12.27;;;7.38;;
5981;SDS011;3018;48.730;9.336;2023-12-14T08:53:57;10.50;;;6.78;;
5981;SDS011;3018;48.730;9.336;2023-12-14T08:56:25;9.65;;;7.25;;
5981;SDS011;3018;48.730;9.336;2023-12-14T08:58:51;9.88;;;7.22;;
5981;SDS011;3018;48.730;9.336;2023-12-14T09:01:19;10.63;;;8.43;;
5981;SDS011;3018;48.730;9.336;2023-12-14T09:03:45;15.15;;;7.45;;
5981;SDS011;3018;48.730;9.336;2023-12-14T09:06:11;12.23;;;7.50;;
5981;SDS011;3018;48.730;9.336;2023-12-14T09:08:37;11.35;;;7.80;;
5981;SDS011;3018;48.730;9.336;2023-12-14T09:11:04;9.85;;;7.45;;
5981;SDS011;3018;48.730;9.336;2023-12-14T09:13:32;9.73;;;7.53;;
5981;SDS011;3018;48.730;9.336;2023-12-14T09:15:58;7.95;;;7.13;;
5981;SDS011;3018;48.730;9.336;2023-12-14T09:18:25;8.32;;;7.47;;
5981;SDS011;3018;48.730;9.336;2023-12-14T09:20:51;10.70;;;7.28;;
5981;SDS011;3018;48.730;9.336;2023-12-14T09:23:17;7.60;;;6.53;;
5981;SDS011;3018;48.730;9.336;2023-12-14T09:25:44;7.90;;;6.88;;
5981;SDS011;3018;48.730;9.336;2023-12-14T09:28:10;10.02;;;7.13;;
5981;SDS011;3018;48.730;9.336;2023-12-14T09:30:38;8.00;;;6.70;;
5981;SDS011;3018;48.730;9.336;2023-12-14T09:33:04;11.90;;;6.45;;
5981;SDS011;3018;48.730;9.336;2023-12-14T09:35:31;8.80;;;6.90;;
5981;SDS011;3018;48.730;9.336;2023-12-14T09:37:57;7.50;;;6.07;;
5981;SDS011;3018;48.730;9.336;2023-12-14T09:40:23;6.93;;;6.22;;
5981;SDS011;3018;48.730;9.336;2023-12-14T09:42:49;8.50;;;6.07;;
5981;SDS011;3018;48.730;9.336;2023-12-14T09:45:16;6.50;;;5.65;;
5981;SDS011;3018;48.730;9.336;2023-12-14T09:47:44;5.78;;;5.20;;
5981;SDS011;3018;48.730;9.336;2023-12-14T09:50:11;6.40;;;5.90;;
5981;SDS011;3018;48.730;9.336;2023-12-14T09:52:39;6.13;;;5.63;;
5981;SDS011;3018;48.730;9.336;2023-12-14T09:55:10;7.13;;;5.70;;
5981;SDS011;3018;48.730;9.336;2023-12-14T09:57:36;5.65;;;5.18;;
5981;SDS011;3018;48.730;9.336;2023-12-14T10:00:02;5.68;;;5.18;;
5981;SDS011;3018;48.730;9.336;2023-12-14T10:02:30;8.90;;;5.82;;
5981;SDS011;3018;48.730;9.336;2023-12-14T10:04:58;5.85;;;4.85;;
5981;SDS011;3018;48.730;9.336;2023-12-14T10:07:24;6.53;;;5.18;;
5981;SDS011;3018;48.730;9.336;2023-12-14T10:09:50;6.60;;;4.57;;
5981;SDS011;3018;48.730;9.336;2023-12-14T10:12:18;4.88;;;4.43;;
5981;SDS011;3018;48.730;9.336;2023-12-14T10:14:44;4.90;;;4.60;;
5981;SDS011;3018;48.730;9.336;2023-12-14T10:17:14;5.43;;;5.03;;
5981;SDS011;3018;48.730;9.336;2023-12-14T10:19:42;6.15;;;5.25;;
5981;SDS011;3018;48.730;9.336;2023-12-14T10:22:09;5.45;;;4.93;;
5981;SDS011;3018;48.730;9.336;2023-12-14T10:24:35;5.50;;;5.07;;
5981;SDS011;3018;48.730;9.336;2023-12-14T10:27:04;9.88;;;4.72;;
5981;SDS011;3018;48.730;9.336;2023-12-14T10:29:32;5.38;;;4.80;;
5981;SDS011;3018;48.730;9.336;2023-12-14T10:31:59;5.80;;;5.03;;
5981;SDS011;3018;48.730;9.336;2023-12-14T10:34:25;6.05;;;5.47;;
5981;SDS011;3018;48.730;9.336;2023-12-14T10:36:51;9.00;;;6.10;;
5981;SDS011;3018;48.730;9.336;2023-12-14T10:39:19;66.80;;;11.18;;
5981;SDS011;3018;48.730;9.336;2023-12-14T10:41:46;11.55;;;6.03;;
5981;SDS011;3018;48.730;9.336;2023-12-14T10:44:13;7.68;;;5.53;;
5981;SDS011;3018;48.730;9.336;2023-12-14T10:46:39;7.43;;;5.85;;
5981;SDS011;3018;48.730;9.336;2023-12-14T10:49:07;15.18;;;6.85;;
5981;SDS011;3018;48.730;9.336;2023-12-14T10:51:33;6.95;;;5.25;;
5981;SDS011;3018;48.730;9.336;2023-12-14T10:54:00;6.55;;;5.93;;
5981;SDS011;3018;48.730;9.336;2023-12-14T10:56:28;7.35;;;6.47;;
5981;SDS011;3018;48.730;9.336;2023-12-14T10:58:55;8.80;;;6.82;;
5981;SDS011;3018;48.730;9.336;2023-12-14T11:01:23;7.13;;;6.28;;
5981;SDS011;3018;48.730;9.336;2023-12-14T11:03:50;8.35;;;6.88;;
5981;SDS011;3018;48.730;9.336;2023-12-14T11:06:20;7.75;;;6.85;;
5981;SDS011;3018;48.730;9.336;2023-12-14T11:08:47;8.13;;;6.95;;
5981;SDS011;3018;48.730;9.336;2023-12-14T11:11:13;9.38;;;6.60;;
5981;SDS011;3018;48.730;9.336;2023-12-14T11:13:46;7.45;;;6.75;;
5981;SDS011;3018;48.730;9.336;2023-12-14T11:16:14;9.50;;;7.10;;
5981;SDS011;3018;48.730;9.336;2023-12-14T11:18:41;8.80;;;7.85;;
5981;SDS011;3018;48.730;9.336;2023-12-14T11:21:07;8.70;;;7.82;;
5981;SDS011;3018;48.730;9.336;2023-12-14T11:23:35;7.20;;;6.50;;
5981;SDS011;3018;48.730;9.336;2023-12-14T11:26:02;7.68;;;6.50;;
5981;SDS011;3018;48.730;9.336;2023-12-14T11:28:29;8.07;;;7.32;;
5981;SDS011;3018;48.730;9.336;2023-12-14T11:30:57;7.90;;;7.07;;
5981;SDS011;3018;48.730;9.336;2023-12-14T11:33:23;13.43;;;7.75;;
5981;SDS011;3018;48.730;9.336;2023-12-14T11:35:50;8.85;;;7.15;;
5981;SDS011;3018;48.730;9.336;2023-12-14T11:38:16;8.38;;;7.53;;
5981;SDS011;3018;48.730;9.336;2023-12-14T11:40:43;9.15;;;7.15;;
5981;SDS011;3018;48.730;9.336;2023-12-14T11:43:09;9.40;;;8.40;;
5981;SDS011;3018;48.730;9.336;2023-12-14T11:45:36;8.85;;;7.88;;
5981;SDS011;3018;48.730;9.336;2023-12-14T11:48:04;9.20;;;8.23;;
5981;SDS011;3018;48.730;9.336;2023-12-14T11:50:31;9.10;;;7.85;;
5981;SDS011;3018;48.730;9.336;2023-12-14T11:52:57;10.35;;;7.50;;
5981;SDS011;3018;48.730;9.336;2023-12-14T11:55:23;9.18;;;7.18;;
5981;SDS011;3018;48.730;9.336;2023-12-14T11:57:50;8.50;;;7.53;;
5981;SDS011;3018;48.730;9.336;2023-12-14T12:00:16;9.35;;;7.55;;
5981;SDS011;3018;48.730;9.336;2023-12-14T12:02:43;8.73;;;7.85;;
5981;SDS011;3018;48.730;9.336;2023-12-14T12:05:10;8.40;;;7.60;;
5981;SDS011;3018;48.730;9.336;2023-12-14T12:07:38;10.15;;;6.72;;
5981;SDS011;3018;48.730;9.336;2023-12-14T12:10:08;14.65;;;6.40;;
5981;SDS011;3018;48.730;9.336;2023-12-14T12:12:35;7.00;;;5.85;;
5981;SDS011;3018;48.730;9.336;2023-12-14T12:15:02;7.20;;;5.40;;
5981;SDS011;3018;48.730;9.336;2023-12-14T12:17:28;5.85;;;5.28;;
5981;SDS011;3018;48.730;9.336;2023-12-14T12:19:54;9.57;;;5.35;;
5981;SDS011;3018;48.730;9.336;2023-12-14T12:22:22;5.78;;;5.28;;
5981;SDS011;3018;48.730;9.336;2023-12-14T12:24:48;8.65;;;5.50;;
5981;SDS011;3018;48.730;9.336;2023-12-14T12:27:14;352.63;;;26.48;;
5981;SDS011;3018;48.730;9.336;2023-12-14T12:29:41;10.30;;;5.55;;
5981;SDS011;3018;48.730;9.336;2023-12-14T12:32:07;6.63;;;4.95;;
5981;SDS011;3018;48.730;9.336;2023-12-14T12:34:33;9.65;;;5.47;;
5981;SDS011;3018;48.730;9.336;2023-12-14T12:36:59;10.10;;;5.50;;
5981;SDS011;3018;48.730;9.336;2023-12-14T12:39:27;5.05;;;3.90;;
5981;SDS011;3018;48.730;9.336;2023-12-14T12:41:54;6.65;;;4.00;;
5981;SDS011;3018;48.730;9.336;2023-12-14T12:44:20;8.00;;;3.35;;
5981;SDS011;3018;48.730;9.336;2023-12-14T12:46:46;5.05;;;3.28;;
5981;SDS011;3018;48.730;9.336;2023-12-14T12:49:12;5.47;;;2.90;;
5981;SDS011;3018;48.730;9.336;2023-12-14T12:51:39;2.40;;;2.20;;
5981;SDS011;3018;48.730;9.336;2023-12-14T12:54:05;2.95;;;2.40;;
5981;SDS011;3018;48.730;9.336;2023-12-14T12:56:32;2.10;;;2.00;;
5981;SDS011;3018;48.730;9.336;2023-12-14T12:58:59;264.40;;;23.13;;
5981;SDS011;3018;48.730;9.336;2023-12-14T13:01:26;6.38;;;3.00;;
5981;SDS011;3018;48.730;9.336;2023-12-14T13:03:53;4.38;;;2.72;;
5981;SDS011;3018;48.730;9.336;2023-12-14T13:06:19;2.88;;;2.65;;
5981;SDS011;3018;48.730;9.336;2023-12-14T13:08:46;3.63;;;2.53;;
5981;SDS011;3018;48.730;9.336;2023-12-14T13:11:12;2.85;;;2.25;;
5981;SDS011;3018;48.730;9.336;2023-12-14T13:13:40;5.25;;;2.30;;
5981;SDS011;3018;48.730;9.336;2023-12-14T13:16:08;2.13;;;2.03;;
5981;SDS011;3018;48.730;9.336;2023-12-14T13:18:35;2.00;;;1.90;;
5981;SDS011;3018;48.730;9.336;2023-12-14T13:21:01;3.22;;;1.92;;
5981;SDS011;3018;48.730;9.336;2023-12-14T13:23:27;2.22;;;1.60;;
5981;SDS011;3018;48.730;9.336;2023-12-14T13:25:53;2.22;;;1.90;;
5981;SDS011;3018;48.730;9.336;2023-12-14T13:28:20;2.45;;;2.10;;
5981;SDS011;3018;48.730;9.336;2023-12-14T13:30:47;2.72;;;2.13;;
5981;SDS011;3018;48.730;9.336;2023-12-14T13:33:13;3.08;;;2.25;;
5981;SDS011;3018;48.730;9.336;2023-12-14T13:35:40;2.63;;;2.10;;
5981;SDS011;3018;48.730;9.336;2023-12-14T13:38:06;2.20;;;2.10;;
5981;SDS011;3018;48.730;9.336;2023-12-14T13:40:32;1.90;;;1.80;;
5981;SDS011;3018;48.730;9.336;2023-12-14T13:42:58;2.30;;;2.10;;
5981;SDS011;3018;48.730;9.336;2023-12-14T13:45:28;1.45;;;1.40;;
5981;SDS011;3018;48.730;9.336;2023-12-14T13:47:57;1.80;;;1.67;;
5981;SDS011;3018;48.730;9.336;2023-12-14T13:50:23;2.20;;;2.10;;
5981;SDS011;3018;48.730;9.336;2023-12-14T13:52:51;2.20;;;2.10;;
5981;SDS011;3018;48.730;9.336;2023-12-14T13:55:17;1.98;;;1.88;;
5981;SDS011;3018;48.730;9.336;2023-12-14T13:57:43;2.58;;;2.38;;
5981;SDS011;3018;48.730;9.336;2023-12-14T14:00:11;2.22;;;2.13;;
5981;SDS011;3018;48.730;9.336;2023-12-14T14:02:37;2.95;;;2.42;;
5981;SDS011;3018;48.730;9.336;2023-12-14T14:05:05;2.40;;;2.30;;
5981;SDS011;3018;48.730;9.336;2023-12-14T14:07:31;1.92;;;1.80;;
5981;SDS011;3018;48.730;9.336;2023-12-14T14:09:57;2.05;;;1.80;;
5981;SDS011;3018;48.730;9.336;2023-12-14T14:12:24;2.05;;;1.80;;
5981;SDS011;3018;48.730;9.336;2023-12-14T14:14:50;2.22;;;2.10;;
5981;SDS011;3018;48.730;9.336;2023-12-14T14:17:16;2.47;;;2.17;;
5981;SDS011;3018;48.730;9.336;2023-12-14T14:19:42;2.08;;;1.70;;
5981;SDS011;3018;48.730;9.336;2023-12-14T14:22:10;1.88;;;1.73;;
5981;SDS011;3018;48.730;9.336;2023-12-14T14:24:36;2.28;;;2.15;;
5981;SDS011;3018;48.730;9.336;2023-12-14T14:27:03;2.10;;;1.92;;
5981;SDS011;3018;48.730;9.336;2023-12-14T14:29:29;2.05;;;1.73;;
5981;SDS011;3018;48.730;9.336;2023-12-14T14:31:55;2.30;;;2.10;;
5981;SDS011;3018;48.730;9.336;2023-12-14T14:34:21;1.98;;;1.88;;
5981;SDS011;3018;48.730;9.336;2023-12-14T14:36:48;2.72;;;2.55;;
5981;SDS011;3018;48.730;9.336;2023-12-14T14:39:16;2.78;;;2.40;;
5981;SDS011;3018;48.730;9.336;2023-12-14T14:41:43;3.13;;;2.78;;
5981;SDS011;3018;48.730;9.336;2023-12-14T14:44:09;3.17;;;2.75;;
5981;SDS011;3018;48.730;9.336;2023-12-14T14:46:36;3.05;;;2.72;;
5981;SDS011;3018;48.730;9.336;2023-12-14T14:49:02;5.53;;;3.00;;
5981;SDS011;3018;48.730;9.336;2023-12-14T14:51:28;3.00;;;2.80;;
5981;SDS011;3018;48.730;9.336;2023-12-14T14:53:55;3.33;;;2.83;;
5981;SDS011;3018;48.730;9.336;2023-12-14T14:56:23;3.22;;;2.92;;
5981;SDS011;3018;48.730;9.336;2023-12-14T14:58:49;4.60;;;3.92;;
5981;SDS011;3018;48.730;9.336;2023-12-14T15:01:15;4.25;;;3.85;;
5981;SDS011;3018;48.730;9.336;2023-12-14T15:03:42;6.70;;;5.32;;
5981;SDS011;3018;48.730;9.336;2023-12-14T15:06:08;6.82;;;5.28;;
5981;SDS011;3018;48.730;9.336;2023-12-14T15:08:35;6.60;;;5.05;;
5981;SDS011;3018;48.730;9.336;2023-12-14T15:11:01;8.57;;;5.38;;